sensor_id;sensor_type;location;lat;lon;timestamp;pressure;altitude;pressure_sealevel;temperature;humidity
41898;BME280;27576;53.366;-1.498;2023-04-08T00:00:19;101001.09;;;9.14;80.05
41898;BME280;27576;53.366;-1.498;2023-04-08T00:02:44;101027.16;;;9.22;81.45
41898;BME280;27576;53.366;-1.498;2023-04-08T00:05:10;101029.72;;;9.20;80.14
41898;BME280;27576;53.366;-1.498;2023-04-08T00:07:36;101037.63;;;9.26;80.36
41898;BME280;27576;53.366;-1.498;2023-04-08T00:10:02;101008.59;;;9.05;79.63
41898;BME280;27576;53.366;-1.498;2023-04-08T00:12:27;100984.03;;;8.91;81.31
41898;BME280;27576;53.366;-1.498;2023-04-08T00:14:53;101024.97;;;9.05;82.39
41898;BME280;27576;53.366;-1.498;2023-04-08T00:17:18;100995.88;;;8.82;82.15
41898;BME280;27576;53.366;-1.498;2023-04-08T00:19:44;101008.13;;;8.90;81.90
41898;BME280;27576;53.366;-1.498;2023-04-08T00:22:10;101016.06;;;8.96;82.93
41898;BME280;27576;53.366;-1.498;2023-04-08T00:24:36;101010.75;;;8.91;84.25
41898;BME280;27576;53.366;-1.498;2023-04-08T00:27:01;101030.03;;;9.02;84.27
41898;BME280;27576;53.366;-1.498;2023-04-08T00:29:27;101027.69;;;9.10;83.23
41898;BME280;27576;53.366;-1.498;2023-04-08T00:31:53;101007.56;;;9.00;83.15
41898;BME280;27576;53.366;-1.498;2023-04-08T00:34:19;101016.25;;;9.02;82.24
41898;BME280;27576;53.366;-1.498;2023-04-08T00:36:44;101034.69;;;9.14;82.43
41898;BME280;27576;53.366;-1.498;2023-04-08T00:39:11;101016.13;;;8.97;83.66
41898;BME280;27576;53.366;-1.498;2023-04-08T00:41:36;101006.44;;;8.90;84.63
41898;BME280;27576;53.366;-1.498;2023-04-08T00:44:02;101044.94;;;9.11;85.70
41898;BME280;27576;53.366;-1.498;2023-04-08T00:46:27;101047.50;;;9.09;86.83
41898;BME280;27576;53.366;-1.498;2023-04-08T00:48:53;101021.22;;;8.96;84.60
41898;BME280;27576;53.366;-1.498;2023-04-08T00:51:19;101046.75;;;9.14;83.34
41898;BME280;27576;53.366;-1.498;2023-04-08T00:53:45;101047.69;;;9.16;84.05
41898;BME280;27576;53.366;-1.498;2023-04-08T00:56:10;101025.50;;;8.94;85.66
41898;BME280;27576;53.366;-1.498;2023-04-08T00:58:36;101028.97;;;8.96;86.67
41898;BME280;27576;53.366;-1.498;2023-04-08T01:01:06;101041.44;;;9.09;87.95
41898;BME280;27576;53.366;-1.498;2023-04-08T01:09:22;101041.47;;;9.10;85.59
41898;BME280;27576;53.366;-1.498;2023-04-08T01:11:50;101031.72;;;9.00;87.39
41898;BME280;27576;53.366;-1.498;2023-04-08T01:14:19;101044.72;;;9.03;88.52
41898;BME280;27576;53.366;-1.498;2023-04-08T01:16:45;101011.28;;;8.79;88.00
41898;BME280;27576;53.366;-1.498;2023-04-08T01:19:20;101030.56;;;8.91;89.19
41898;BME280;27576;53.366;-1.498;2023-04-08T01:21:49;101028.72;;;8.87;89.12
41898;BME280;27576;53.366;-1.498;2023-04-08T01:24:20;101040.91;;;8.91;88.87
41898;BME280;27576;53.366;-1.498;2023-04-08T01:26:48;101034.63;;;8.82;89.26
41898;BME280;27576;53.366;-1.498;2023-04-08T01:29:15;101053.06;;;8.93;89.03
41898;BME280;27576;53.366;-1.498;2023-04-08T01:31:41;101021.31;;;8.69;88.75
41898;BME280;27576;53.366;-1.498;2023-04-08T01:34:08;101041.47;;;8.80;89.50
41898;BME280;27576;53.366;-1.498;2023-04-08T01:36:36;101033.44;;;8.71;89.94
41898;BME280;27576;53.366;-1.498;2023-04-08T01:39:04;101023.72;;;8.64;90.17
41898;BME280;27576;53.366;-1.498;2023-04-08T01:41:30;101038.44;;;8.65;90.31
41898;BME280;27576;53.366;-1.498;2023-04-08T01:43:58;101050.78;;;8.75;90.02
41898;BME280;27576;53.366;-1.498;2023-04-08T01:46:25;101033.94;;;8.59;90.30
41898;BME280;27576;53.366;-1.498;2023-04-08T01:48:53;101035.28;;;8.48;90.43
41898;BME280;27576;53.366;-1.498;2023-04-08T01:51:20;101046.59;;;8.52;90.86
41898;BME280;27576;53.366;-1.498;2023-04-08T01:53:46;101038.47;;;8.40;91.39
41898;BME280;27576;53.366;-1.498;2023-04-08T01:56:12;101029.56;;;8.31;91.43
41898;BME280;27576;53.366;-1.498;2023-04-08T01:58:47;101042.47;;;8.31;91.68
41898;BME280;27576;53.366;-1.498;2023-04-08T02:01:17;101066.84;;;8.38;91.61
41898;BME280;27576;53.366;-1.498;2023-04-08T02:03:44;101037.66;;;8.15;91.74
41898;BME280;27576;53.366;-1.498;2023-04-08T02:06:11;101026.94;;;8.03;91.72
41898;BME280;27576;53.366;-1.498;2023-04-08T02:08:36;101038.25;;;8.06;92.03
41898;BME280;27576;53.366;-1.498;2023-04-08T02:11:02;101043.25;;;8.02;92.24
41898;BME280;27576;53.366;-1.498;2023-04-08T02:13:28;101038.63;;;7.93;92.67
41898;BME280;27576;53.366;-1.498;2023-04-08T02:16:11;101072.56;;;8.04;94.13
41898;BME280;27576;53.366;-1.498;2023-04-08T02:18:42;101045.22;;;7.83;94.40
41898;BME280;27576;53.366;-1.498;2023-04-08T02:21:17;101062.75;;;7.94;94.74
41898;BME280;27576;53.366;-1.498;2023-04-08T02:23:47;101070.31;;;7.89;94.54
41898;BME280;27576;53.366;-1.498;2023-04-08T02:26:15;101067.56;;;7.83;94.44
41898;BME280;27576;53.366;-1.498;2023-04-08T02:28:41;101069.06;;;7.78;95.15
41898;BME280;27576;53.366;-1.498;2023-04-08T02:31:10;101048.69;;;7.60;94.80
41898;BME280;27576;53.366;-1.498;2023-04-08T02:33:39;101049.41;;;7.56;94.30
41898;BME280;27576;53.366;-1.498;2023-04-08T02:36:05;101047.59;;;7.53;95.15
41898;BME280;27576;53.366;-1.498;2023-04-08T02:38:31;101073.72;;;7.62;94.72
41898;BME280;27576;53.366;-1.498;2023-04-08T02:40:57;101066.63;;;7.57;95.32
41898;BME280;27576;53.366;-1.498;2023-04-08T02:43:23;101053.06;;;7.38;95.12
41898;BME280;27576;53.366;-1.498;2023-04-08T02:45:55;101062.50;;;7.38;95.20
41898;BME280;27576;53.366;-1.498;2023-04-08T02:48:21;101048.19;;;7.22;95.35
41898;BME280;27576;53.366;-1.498;2023-04-08T02:50:47;101073.50;;;7.32;95.60
41898;BME280;27576;53.366;-1.498;2023-04-08T02:53:12;101042.59;;;7.10;95.84
41898;BME280;27576;53.366;-1.498;2023-04-08T02:55:37;101054.06;;;7.18;95.58
41898;BME280;27576;53.366;-1.498;2023-04-08T02:58:03;101048.63;;;7.10;96.12
41898;BME280;27576;53.366;-1.498;2023-04-08T03:00:29;101076.78;;;7.28;96.79
41898;BME280;27576;53.366;-1.498;2023-04-08T03:02:54;101081.00;;;7.26;96.25
41898;BME280;27576;53.366;-1.498;2023-04-08T03:05:20;101080.78;;;7.20;96.77
41898;BME280;27576;53.366;-1.498;2023-04-08T03:07:45;101038.34;;;6.88;96.33
41898;BME280;27576;53.366;-1.498;2023-04-08T03:10:11;100976.00;;;6.52;96.60
41898;BME280;27576;53.366;-1.498;2023-04-08T03:12:36;101075.75;;;7.01;97.08
41898;BME280;27576;53.366;-1.498;2023-04-08T03:15:02;101095.66;;;7.05;96.57
41898;BME280;27576;53.366;-1.498;2023-04-08T03:17:28;101083.94;;;6.91;97.20
41898;BME280;27576;53.366;-1.498;2023-04-08T03:19:53;101050.50;;;6.70;97.03
41898;BME280;27576;53.366;-1.498;2023-04-08T03:22:19;101060.81;;;6.70;97.53
41898;BME280;27576;53.366;-1.498;2023-04-08T03:24:44;101067.09;;;6.76;96.80
41898;BME280;27576;53.366;-1.498;2023-04-08T03:27:10;101081.72;;;6.77;97.44
41898;BME280;27576;53.366;-1.498;2023-04-08T03:29:36;101098.06;;;6.78;97.75
41898;BME280;27576;53.366;-1.498;2023-04-08T03:32:02;101065.19;;;6.50;99.25
41898;BME280;27576;53.366;-1.498;2023-04-08T03:34:27;101091.28;;;6.59;99.40
41898;BME280;27576;53.366;-1.498;2023-04-08T03:36:52;101057.69;;;6.33;99.70
41898;BME280;27576;53.366;-1.498;2023-04-08T03:39:18;101092.56;;;6.48;99.22
41898;BME280;27576;53.366;-1.498;2023-04-08T03:41:44;101082.16;;;6.45;99.86
41898;BME280;27576;53.366;-1.498;2023-04-08T03:44:09;101104.00;;;6.54;100.00
41898;BME280;27576;53.366;-1.498;2023-04-08T03:46:35;101102.84;;;6.48;100.00
41898;BME280;27576;53.366;-1.498;2023-04-08T03:49:00;101103.53;;;6.44;100.00
41898;BME280;27576;53.366;-1.498;2023-04-08T03:51:25;101115.81;;;6.49;100.00
41898;BME280;27576;53.366;-1.498;2023-04-08T03:53:52;101074.50;;;6.25;100.00
41898;BME280;27576;53.366;-1.498;2023-04-08T03:56:21;101075.25;;;6.23;100.00
41898;BME280;27576;53.366;-1.498;2023-04-08T03:58:46;101081.53;;;6.29;100.00
41898;BME280;27576;53.366;-1.498;2023-04-08T04:01:11;101074.25;;;6.19;100.00
41898;BME280;27576;53.366;-1.498;2023-04-08T04:03:37;101089.34;;;6.32;100.00
41898;BME280;27576;53.366;-1.498;2023-04-08T04:06:02;101085.53;;;6.23;100.00
41898;BME280;27576;53.366;-1.498;2023-04-08T04:08:28;101120.47;;;6.37;100.00
41898;BME280;27576;53.366;-1.498;2023-04-08T04:10:53;101091.38;;;6.19;100.00
41898;BME280;27576;53.366;-1.498;2023-04-08T04:13:18;101088.47;;;6.11;100.00
41898;BME280;27576;53.366;-1.498;2023-04-08T04:15:44;101101.63;;;6.17;100.00
41898;BME280;27576;53.366;-1.498;2023-04-08T04:18:09;101087.28;;;6.03;100.00
41898;BME280;27576;53.366;-1.498;2023-04-08T04:20:38;101067.22;;;5.94;100.00
41898;BME280;27576;53.366;-1.498;2023-04-08T04:23:03;101080.16;;;5.97;100.00
41898;BME280;27576;53.366;-1.498;2023-04-08T04:25:31;101048.44;;;5.77;100.00
41898;BME280;27576;53.366;-1.498;2023-04-08T04:27:59;101078.84;;;5.86;100.00
41898;BME280;27576;53.366;-1.498;2023-04-08T04:30:26;101112.06;;;6.01;100.00
41898;BME280;27576;53.366;-1.498;2023-04-08T04:32:52;101126.13;;;6.09;100.00
41898;BME280;27576;53.366;-1.498;2023-04-08T04:35:17;101083.84;;;5.83;100.00
41898;BME280;27576;53.366;-1.498;2023-04-08T04:37:43;101104.66;;;5.89;100.00
41898;BME280;27576;53.366;-1.498;2023-04-08T04:40:08;101103.66;;;5.85;100.00
41898;BME280;27576;53.366;-1.498;2023-04-08T04:42:34;101113.06;;;5.85;100.00
41898;BME280;27576;53.366;-1.498;2023-04-08T04:44:59;101127.91;;;5.90;100.00
41898;BME280;27576;53.366;-1.498;2023-04-08T04:47:25;101068.97;;;5.56;100.00
41898;BME280;27576;53.366;-1.498;2023-04-08T04:49:50;101085.81;;;5.69;100.00
41898;BME280;27576;53.366;-1.498;2023-04-08T04:52:16;101093.28;;;5.63;100.00
41898;BME280;27576;53.366;-1.498;2023-04-08T04:54:42;101107.72;;;5.61;100.00
41898;BME280;27576;53.366;-1.498;2023-04-08T04:57:07;101095.03;;;5.45;100.00
41898;BME280;27576;53.366;-1.498;2023-04-08T04:59:33;101135.47;;;5.68;100.00
41898;BME280;27576;53.366;-1.498;2023-04-08T05:01:59;101112.47;;;5.52;100.00
41898;BME280;27576;53.366;-1.498;2023-04-08T05:04:24;101135.44;;;5.66;100.00
41898;BME280;27576;53.366;-1.498;2023-04-08T05:06:50;101122.09;;;5.56;100.00
41898;BME280;27576;53.366;-1.498;2023-04-08T05:09:16;101121.53;;;5.44;100.00
41898;BME280;27576;53.366;-1.498;2023-04-08T05:11:41;101114.34;;;5.36;100.00
41898;BME280;27576;53.366;-1.498;2023-04-08T05:14:07;101135.75;;;5.35;100.00
41898;BME280;27576;53.366;-1.498;2023-04-08T05:16:33;101092.22;;;5.21;100.00
41898;BME280;27576;53.366;-1.498;2023-04-08T05:18:58;101113.41;;;5.34;100.00
41898;BME280;27576;53.366;-1.498;2023-04-08T05:21:23;101141.13;;;5.41;100.00
41898;BME280;27576;53.366;-1.498;2023-04-08T05:23:49;101149.81;;;5.44;100.00
41898;BME280;27576;53.366;-1.498;2023-04-08T05:26:18;101104.78;;;5.14;100.00
41898;BME280;27576;53.366;-1.498;2023-04-08T05:28:43;101110.00;;;5.16;100.00
41898;BME280;27576;53.366;-1.498;2023-04-08T05:31:08;101128.16;;;5.19;100.00
41898;BME280;27576;53.366;-1.498;2023-04-08T05:33:36;101148.28;;;5.29;100.00
41898;BME280;27576;53.366;-1.498;2023-04-08T05:36:01;101142.00;;;5.23;100.00
41898;BME280;27576;53.366;-1.498;2023-04-08T05:38:26;101153.06;;;5.22;100.00
41898;BME280;27576;53.366;-1.498;2023-04-08T05:40:52;101159.25;;;5.25;100.00
41898;BME280;27576;53.366;-1.498;2023-04-08T05:43:18;101152.06;;;5.18;100.00
41898;BME280;27576;53.366;-1.498;2023-04-08T05:45:43;101170.34;;;5.24;100.00
41898;BME280;27576;53.366;-1.498;2023-04-08T05:48:08;101137.81;;;5.07;100.00
41898;BME280;27576;53.366;-1.498;2023-04-08T05:50:34;101158.00;;;5.17;100.00
41898;BME280;27576;53.366;-1.498;2023-04-08T05:53:00;101159.75;;;5.18;100.00
41898;BME280;27576;53.366;-1.498;2023-04-08T05:55:25;101145.78;;;5.11;100.00
41898;BME280;27576;53.366;-1.498;2023-04-08T05:57:51;101166.91;;;5.24;100.00
41898;BME280;27576;53.366;-1.498;2023-04-08T06:00:16;101152.44;;;5.08;100.00
41898;BME280;27576;53.366;-1.498;2023-04-08T06:02:41;101169.16;;;5.17;100.00
41898;BME280;27576;53.366;-1.498;2023-04-08T06:05:07;101179.66;;;5.22;100.00
41898;BME280;27576;53.366;-1.498;2023-04-08T06:07:33;101184.94;;;5.25;100.00
41898;BME280;27576;53.366;-1.498;2023-04-08T06:09:58;101161.09;;;5.10;100.00
41898;BME280;27576;53.366;-1.498;2023-04-08T06:12:24;101188.59;;;5.30;100.00
41898;BME280;27576;53.366;-1.498;2023-04-08T06:14:53;101113.88;;;4.88;100.00
41898;BME280;27576;53.366;-1.498;2023-04-08T06:17:18;101182.66;;;5.31;100.00
41898;BME280;27576;53.366;-1.498;2023-04-08T06:19:43;101199.31;;;5.39;100.00
41898;BME280;27576;53.366;-1.498;2023-04-08T06:22:09;101188.88;;;5.36;100.00
41898;BME280;27576;53.366;-1.498;2023-04-08T06:24:34;101170.75;;;5.33;100.00
41898;BME280;27576;53.366;-1.498;2023-04-08T06:27:00;101211.38;;;5.60;100.00
41898;BME280;27576;53.366;-1.498;2023-04-08T06:29:25;101210.88;;;5.67;100.00
41898;BME280;27576;53.366;-1.498;2023-04-08T06:31:50;101180.13;;;5.51;100.00
41898;BME280;27576;53.366;-1.498;2023-04-08T06:34:16;101171.81;;;5.56;100.00
41898;BME280;27576;53.366;-1.498;2023-04-08T06:36:41;101207.00;;;5.77;100.00
41898;BME280;27576;53.366;-1.498;2023-04-08T06:39:07;101163.38;;;5.59;100.00
41898;BME280;27576;53.366;-1.498;2023-04-08T06:41:32;101214.75;;;5.96;100.00
41898;BME280;27576;53.366;-1.498;2023-04-08T06:43:58;101217.44;;;5.98;100.00
41898;BME280;27576;53.366;-1.498;2023-04-08T06:46:23;101194.94;;;5.94;100.00
41898;BME280;27576;53.366;-1.498;2023-04-08T06:48:49;101213.19;;;6.19;100.00
41898;BME280;27576;53.366;-1.498;2023-04-08T06:51:15;101220.63;;;6.32;100.00
41898;BME280;27576;53.366;-1.498;2023-04-08T06:53:40;101226.84;;;6.57;100.00
41898;BME280;27576;53.366;-1.498;2023-04-08T06:56:05;101191.84;;;6.62;100.00
41898;BME280;27576;53.366;-1.498;2023-04-08T06:58:31;101216.16;;;6.89;100.00
41898;BME280;27576;53.366;-1.498;2023-04-08T07:00:58;101195.16;;;7.01;100.00
41898;BME280;27576;53.366;-1.498;2023-04-08T07:03:23;101193.03;;;7.12;100.00
41898;BME280;27576;53.366;-1.498;2023-04-08T07:05:48;101218.78;;;7.34;100.00
41898;BME280;27576;53.366;-1.498;2023-04-08T07:08:14;101199.06;;;7.35;100.00
41898;BME280;27576;53.366;-1.498;2023-04-08T07:10:39;101192.22;;;7.35;100.00
41898;BME280;27576;53.366;-1.498;2023-04-08T07:13:06;101189.63;;;7.35;100.00
41898;BME280;27576;53.366;-1.498;2023-04-08T07:15:31;101207.03;;;7.41;100.00
41898;BME280;27576;53.366;-1.498;2023-04-08T07:17:56;101213.19;;;7.45;100.00
41898;BME280;27576;53.366;-1.498;2023-04-08T07:20:22;101212.31;;;7.44;100.00
41898;BME280;27576;53.366;-1.498;2023-04-08T07:22:48;101192.22;;;7.35;100.00
41898;BME280;27576;53.366;-1.498;2023-04-08T07:25:14;101222.97;;;7.53;100.00
41898;BME280;27576;53.366;-1.498;2023-04-08T07:27:40;101239.72;;;7.65;100.00
41898;BME280;27576;53.366;-1.498;2023-04-08T07:30:06;101203.13;;;7.51;100.00
41898;BME280;27576;53.366;-1.498;2023-04-08T07:32:32;101213.00;;;7.62;100.00
41898;BME280;27576;53.366;-1.498;2023-04-08T07:34:58;101233.22;;;7.74;100.00
41898;BME280;27576;53.366;-1.498;2023-04-08T07:37:26;101244.81;;;7.85;100.00
41898;BME280;27576;53.366;-1.498;2023-04-08T07:39:51;101215.16;;;7.74;100.00
41898;BME280;27576;53.366;-1.498;2023-04-08T07:42:17;101225.69;;;7.80;100.00
41898;BME280;27576;53.366;-1.498;2023-04-08T07:44:43;101209.94;;;7.73;100.00
41898;BME280;27576;53.366;-1.498;2023-04-08T07:47:09;101227.81;;;7.91;100.00
41898;BME280;27576;53.366;-1.498;2023-04-08T07:49:36;101251.06;;;8.15;100.00
41898;BME280;27576;53.366;-1.498;2023-04-08T07:52:01;101249.75;;;8.26;100.00
41898;BME280;27576;53.366;-1.498;2023-04-08T07:54:27;101211.94;;;8.04;100.00
41898;BME280;27576;53.366;-1.498;2023-04-08T07:56:52;101227.75;;;8.13;100.00
41898;BME280;27576;53.366;-1.498;2023-04-08T07:59:17;101222.53;;;8.11;100.00
41898;BME280;27576;53.366;-1.498;2023-04-08T08:01:43;101221.81;;;8.16;100.00
41898;BME280;27576;53.366;-1.498;2023-04-08T08:04:08;101241.28;;;8.30;100.00
41898;BME280;27576;53.366;-1.498;2023-04-08T08:06:34;101260.44;;;8.36;100.00
41898;BME280;27576;53.366;-1.498;2023-04-08T08:09:00;101234.31;;;8.29;100.00
41898;BME280;27576;53.366;-1.498;2023-04-08T08:11:25;101252.94;;;8.43;100.00
41898;BME280;27576;53.366;-1.498;2023-04-08T08:13:52;101236.19;;;8.33;100.00
41898;BME280;27576;53.366;-1.498;2023-04-08T08:16:17;101252.09;;;8.44;100.00
41898;BME280;27576;53.366;-1.498;2023-04-08T08:18:43;101218.94;;;8.32;100.00
41898;BME280;27576;53.366;-1.498;2023-04-08T08:21:10;101230.41;;;8.39;100.00
41898;BME280;27576;53.366;-1.498;2023-04-08T08:23:36;101224.41;;;8.40;100.00
41898;BME280;27576;53.366;-1.498;2023-04-08T08:26:06;101261.63;;;8.70;100.00
41898;BME280;27576;53.366;-1.498;2023-04-08T08:28:34;101252.19;;;8.71;100.00
41898;BME280;27576;53.366;-1.498;2023-04-08T08:30:59;101223.50;;;8.63;100.00
41898;BME280;27576;53.366;-1.498;2023-04-08T08:33:25;101229.69;;;8.68;100.00
41898;BME280;27576;53.366;-1.498;2023-04-08T08:35:51;101259.88;;;8.95;100.00
41898;BME280;27576;53.366;-1.498;2023-04-08T08:38:16;101213.47;;;8.72;100.00
41898;BME280;27576;53.366;-1.498;2023-04-08T08:40:43;101263.69;;;9.06;99.94
41898;BME280;27576;53.366;-1.498;2023-04-08T08:43:09;101227.88;;;8.91;99.64
41898;BME280;27576;53.366;-1.498;2023-04-08T08:45:41;101226.00;;;8.87;99.38
41898;BME280;27576;53.366;-1.498;2023-04-08T08:48:07;101246.09;;;8.96;99.02
41898;BME280;27576;53.366;-1.498;2023-04-08T08:50:33;101261.94;;;9.05;99.57
41898;BME280;27576;53.366;-1.498;2023-04-08T08:52:59;101267.63;;;9.20;99.33
41898;BME280;27576;53.366;-1.498;2023-04-08T08:55:25;101255.69;;;9.25;100.00
41898;BME280;27576;53.366;-1.498;2023-04-08T08:57:51;101270.38;;;9.53;98.12
41898;BME280;27576;53.366;-1.498;2023-04-08T09:00:16;101255.06;;;9.61;96.69
41898;BME280;27576;53.366;-1.498;2023-04-08T09:02:42;101277.34;;;9.84;95.68
41898;BME280;27576;53.366;-1.498;2023-04-08T09:05:08;101245.41;;;9.84;95.43
41898;BME280;27576;53.366;-1.498;2023-04-08T09:07:38;101265.19;;;10.12;93.65
41898;BME280;27576;53.366;-1.498;2023-04-08T09:10:05;101254.09;;;10.16;93.62
41898;BME280;27576;53.366;-1.498;2023-04-08T09:12:30;101265.91;;;10.37;93.48
41898;BME280;27576;53.366;-1.498;2023-04-08T09:15:07;101248.25;;;10.53;91.79
41898;BME280;27576;53.366;-1.498;2023-04-08T09:17:37;101228.44;;;10.57;91.73
41898;BME280;27576;53.366;-1.498;2023-04-08T09:20:06;101270.88;;;10.94;90.25
41898;BME280;27576;53.366;-1.498;2023-04-08T09:22:47;101258.75;;;10.93;87.08
41898;BME280;27576;53.366;-1.498;2023-04-08T09:25:26;101234.66;;;10.97;87.85
41898;BME280;27576;53.366;-1.498;2023-04-08T09:27:52;101265.78;;;11.33;88.72
41898;BME280;27576;53.366;-1.498;2023-04-08T09:30:22;101250.31;;;11.38;86.69
41898;BME280;27576;53.366;-1.498;2023-04-08T09:32:52;101264.84;;;11.67;84.56
41898;BME280;27576;53.366;-1.498;2023-04-08T09:35:18;101256.16;;;11.67;81.74
41898;BME280;27576;53.366;-1.498;2023-04-08T09:37:44;101238.81;;;11.64;82.86
41898;BME280;27576;53.366;-1.498;2023-04-08T09:40:11;101271.63;;;12.00;80.73
41898;BME280;27576;53.366;-1.498;2023-04-08T09:42:39;101262.38;;;12.14;81.25
41898;BME280;27576;53.366;-1.498;2023-04-08T09:45:06;101244.19;;;12.14;78.19
41898;BME280;27576;53.366;-1.498;2023-04-08T09:47:41;101269.88;;;12.43;78.88
41898;BME280;27576;53.366;-1.498;2023-04-08T09:50:08;101263.19;;;12.57;78.66
41898;BME280;27576;53.366;-1.498;2023-04-08T09:52:44;101257.31;;;12.67;73.03
41898;BME280;27576;53.366;-1.498;2023-04-08T09:55:12;101251.19;;;12.64;72.77
41898;BME280;27576;53.366;-1.498;2023-04-08T09:57:58;101271.47;;;12.82;75.75
41898;BME280;27576;53.366;-1.498;2023-04-08T10:00:34;101269.16;;;13.00;72.93
41898;BME280;27576;53.366;-1.498;2023-04-08T10:03:10;101262.69;;;13.28;71.99
41898;BME280;27576;53.366;-1.498;2023-04-08T10:05:40;101251.53;;;13.35;70.36
41898;BME280;27576;53.366;-1.498;2023-04-08T10:08:06;101262.72;;;13.30;68.86
41898;BME280;27576;53.366;-1.498;2023-04-08T10:10:33;101261.72;;;13.21;69.32
41898;BME280;27576;53.366;-1.498;2023-04-08T10:13:02;101259.91;;;13.17;68.75
41898;BME280;27576;53.366;-1.498;2023-04-08T10:15:31;101222.97;;;12.87;67.55
41898;BME280;27576;53.366;-1.498;2023-04-08T10:23:03;101239.97;;;13.19;66.72
41898;BME280;27576;53.366;-1.498;2023-04-08T10:25:37;101251.38;;;13.24;66.21
41898;BME280;27576;53.366;-1.498;2023-04-08T10:33:31;101232.66;;;13.48;65.27
41898;BME280;27576;53.366;-1.498;2023-04-08T10:38:31;101200.34;;;13.36;61.99
41898;BME280;27576;53.366;-1.498;2023-04-08T10:40:56;101225.00;;;13.61;63.94
41898;BME280;27576;53.366;-1.498;2023-04-08T10:43:22;101214.88;;;13.84;65.06
41898;BME280;27576;53.366;-1.498;2023-04-08T10:45:48;101207.25;;;14.00;60.80
41898;BME280;27576;53.366;-1.498;2023-04-08T10:48:20;101201.44;;;14.24;62.53
41898;BME280;27576;53.366;-1.498;2023-04-08T10:53:34;101207.00;;;14.57;59.93
41898;BME280;27576;53.366;-1.498;2023-04-08T10:58:30;101207.22;;;14.80;61.14
41898;BME280;27576;53.366;-1.498;2023-04-08T11:01:02;101234.41;;;15.06;60.59
41898;BME280;27576;53.366;-1.498;2023-04-08T11:03:28;101211.78;;;15.07;58.80
41898;BME280;27576;53.366;-1.498;2023-04-08T11:05:56;101226.66;;;15.20;60.10
41898;BME280;27576;53.366;-1.498;2023-04-08T11:08:29;101207.41;;;15.06;60.38
41898;BME280;27576;53.366;-1.498;2023-04-08T11:10:55;101219.72;;;15.28;60.63
41898;BME280;27576;53.366;-1.498;2023-04-08T11:13:21;101227.66;;;15.39;60.77
41898;BME280;27576;53.366;-1.498;2023-04-08T11:15:48;101207.66;;;15.42;61.49
41898;BME280;27576;53.366;-1.498;2023-04-08T11:18:14;101213.78;;;15.52;59.49
41898;BME280;27576;53.366;-1.498;2023-04-08T11:20:42;101195.44;;;15.37;59.05
41898;BME280;27576;53.366;-1.498;2023-04-08T11:23:15;101209.50;;;15.63;60.67
41898;BME280;27576;53.366;-1.498;2023-04-08T11:25:45;101202.59;;;15.70;60.00
41898;BME280;27576;53.366;-1.498;2023-04-08T11:28:12;101185.97;;;15.59;59.36
41898;BME280;27576;53.366;-1.498;2023-04-08T11:30:39;101186.91;;;15.70;61.08
41898;BME280;27576;53.366;-1.498;2023-04-08T11:33:06;101186.97;;;15.82;59.87
41898;BME280;27576;53.366;-1.498;2023-04-08T11:35:31;101185.25;;;15.95;61.29
41898;BME280;27576;53.366;-1.498;2023-04-08T11:37:57;101192.22;;;15.85;55.15
41898;BME280;27576;53.366;-1.498;2023-04-08T11:40:23;101174.75;;;15.77;57.03
41898;BME280;27576;53.366;-1.498;2023-04-08T11:42:52;101209.63;;;15.82;54.59
41898;BME280;27576;53.366;-1.498;2023-04-08T11:45:19;101196.41;;;15.54;55.86
41898;BME280;27576;53.366;-1.498;2023-04-08T11:47:47;101178.03;;;15.39;59.42
41898;BME280;27576;53.366;-1.498;2023-04-08T11:50:25;101196.44;;;15.60;59.00
41898;BME280;27576;53.366;-1.498;2023-04-08T11:52:53;101193.00;;;15.66;55.78
41898;BME280;27576;53.366;-1.498;2023-04-08T11:55:24;101199.91;;;15.56;55.22
41898;BME280;27576;53.366;-1.498;2023-04-08T11:57:51;101195.38;;;15.28;55.06
41898;BME280;27576;53.366;-1.498;2023-04-08T12:00:17;101208.50;;;15.43;57.14
41898;BME280;27576;53.366;-1.498;2023-04-08T12:02:43;101182.25;;;15.17;53.43
41898;BME280;27576;53.366;-1.498;2023-04-08T12:05:08;101206.81;;;15.45;56.16
41898;BME280;27576;53.366;-1.498;2023-04-08T12:07:35;101172.00;;;15.52;56.27
41898;BME280;27576;53.366;-1.498;2023-04-08T12:10:00;101193.94;;;15.85;55.19
41898;BME280;27576;53.366;-1.498;2023-04-08T12:12:25;101168.72;;;16.02;56.21
41898;BME280;27576;53.366;-1.498;2023-04-08T12:14:51;101169.66;;;16.26;52.10
41898;BME280;27576;53.366;-1.498;2023-04-08T12:17:16;101172.31;;;16.62;50.86
41898;BME280;27576;53.366;-1.498;2023-04-08T12:19:42;101143.50;;;17.08;49.97
41898;BME280;27576;53.366;-1.498;2023-04-08T12:22:07;101179.19;;;17.57;49.36
41898;BME280;27576;53.366;-1.498;2023-04-08T12:24:33;101167.81;;;17.61;49.53
41898;BME280;27576;53.366;-1.498;2023-04-08T12:26:58;101189.53;;;17.87;48.57
41898;BME280;27576;53.366;-1.498;2023-04-08T12:29:24;101176.09;;;18.47;47.85
41898;BME280;27576;53.366;-1.498;2023-04-08T12:31:49;101153.88;;;18.89;46.60
41898;BME280;27576;53.366;-1.498;2023-04-08T12:34:14;101169.75;;;19.64;48.18
41898;BME280;27576;53.366;-1.498;2023-04-08T12:36:41;101127.03;;;20.09;44.04
41898;BME280;27576;53.366;-1.498;2023-04-08T12:39:06;101154.84;;;20.83;42.51
41898;BME280;27576;53.366;-1.498;2023-04-08T12:41:32;101162.06;;;21.65;42.86
41898;BME280;27576;53.366;-1.498;2023-04-08T12:43:57;101152.06;;;22.21;36.95
41898;BME280;27576;53.366;-1.498;2023-04-08T12:46:23;101146.75;;;22.58;40.14
41898;BME280;27576;53.366;-1.498;2023-04-08T12:48:48;101154.53;;;22.98;37.46
41898;BME280;27576;53.366;-1.498;2023-04-08T12:51:13;101152.19;;;22.88;33.87
41898;BME280;27576;53.366;-1.498;2023-04-08T12:53:39;101160.31;;;22.78;35.00
41898;BME280;27576;53.366;-1.498;2023-04-08T12:56:04;101159.47;;;23.12;37.98
41898;BME280;27576;53.366;-1.498;2023-04-08T12:58:30;101122.81;;;23.61;37.35
41898;BME280;27576;53.366;-1.498;2023-04-08T13:00:55;101149.06;;;24.26;32.92
41898;BME280;27576;53.366;-1.498;2023-04-08T13:03:20;101123.69;;;24.19;32.71